createdAt,value
2023-05-08T00:02:18.245Z,3.50
2023-05-08T00:04:44.962Z,4.60
2023-05-08T00:07:11.673Z,4.50
2023-05-08T00:09:38.345Z,4.60
2023-05-08T00:12:05.503Z,4.27
2023-05-08T00:14:32.213Z,4.17
2023-05-08T00:17:00.366Z,4.30
2023-05-08T00:19:27.076Z,3.70
2023-05-08T00:21:53.738Z,4.30
2023-05-08T00:24:20.442Z,3.30
2023-05-08T00:26:47.109Z,4.30
2023-05-08T00:29:13.813Z,3.90
2023-05-08T00:31:40.507Z,4.70
2023-05-08T00:34:08.658Z,4.43
2023-05-08T00:36:35.355Z,4.63
2023-05-08T00:39:02.087Z,4.73
2023-05-08T00:41:28.795Z,4.60
2023-05-08T00:43:55.462Z,4.73
2023-05-08T00:46:22.782Z,3.93
2023-05-08T00:48:49.564Z,4.67
2023-05-08T00:51:18.082Z,4.67
2023-05-08T00:53:45.303Z,4.20
2023-05-08T00:56:13.883Z,4.37
2023-05-08T00:58:41.936Z,4.33
2023-05-08T01:01:09.107Z,4.20
2023-05-08T01:03:36.476Z,4.30
2023-05-08T01:06:03.910Z,4.87
2023-05-08T01:08:32.648Z,4.87
2023-05-08T01:11:08.035Z,4.70
2023-05-08T01:13:45.919Z,4.63
2023-05-08T01:16:15.709Z,4.07
2023-05-08T01:18:47.607Z,3.93
2023-05-08T01:21:22.109Z,4.40
2023-05-08T01:24:21.525Z,4.80
2023-05-08T01:27:15.376Z,4.40
2023-05-08T01:30:08.987Z,4.20
2023-05-08T01:32:40.685Z,4.23
2023-05-08T01:35:17.182Z,4.50
2023-05-08T01:37:51.522Z,4.70
2023-05-08T01:40:28.167Z,4.63
2023-05-08T01:43:03.471Z,4.40
2023-05-08T01:45:34.701Z,3.77
2023-05-08T01:48:06.014Z,4.70
2023-05-08T01:50:36.364Z,4.13
2023-05-08T01:53:09.393Z,4.40
2023-05-08T01:55:38.792Z,4.67
2023-05-08T01:58:09.577Z,4.40
2023-05-08T02:00:39.768Z,5.13
2023-05-08T02:03:09.321Z,4.67
2023-05-08T02:05:37.883Z,4.30
2023-05-08T02:08:06.528Z,4.47
2023-05-08T02:10:34.625Z,4.57
2023-05-08T02:13:02.348Z,4.40
2023-05-08T02:15:30.525Z,5.10
2023-05-08T02:17:59.723Z,5.80
2023-05-08T02:20:28.773Z,3.70
2023-05-08T02:22:56.589Z,4.77
2023-05-08T02:25:24.181Z,5.57
2023-05-08T02:27:53.312Z,3.77
2023-05-08T02:30:24.068Z,5.17
2023-05-08T02:32:52.253Z,4.47
2023-05-08T02:35:20.255Z,4.27
2023-05-08T02:37:51.552Z,4.13
2023-05-08T02:40:20.497Z,4.13
2023-05-08T02:42:47.331Z,4.93
2023-05-08T02:45:14.482Z,4.70
2023-05-08T02:47:47.352Z,5.10
2023-05-08T02:50:18.799Z,5.27
2023-05-08T02:52:50.751Z,4.60
2023-05-08T02:55:29.662Z,5.17
2023-05-08T02:58:04.222Z,4.70
2023-05-08T03:00:34.960Z,4.30
2023-05-08T03:03:07.565Z,4.37
2023-05-08T03:05:36.813Z,4.50
2023-05-08T03:08:08.501Z,4.60
2023-05-08T03:10:37.054Z,4.47
2023-05-08T03:13:06.385Z,4.50
2023-05-08T03:15:36.034Z,4.53
2023-05-08T03:18:19.792Z,4.30
2023-05-08T03:20:54.012Z,4.80
2023-05-08T03:23:23.531Z,5.17
2023-05-08T03:25:51.391Z,5.33
2023-05-08T03:28:18.583Z,4.60
2023-05-08T03:30:45.853Z,5.00
2023-05-08T03:33:13.075Z,4.63
2023-05-08T03:35:40.035Z,3.80
2023-05-08T03:38:07.180Z,4.70
2023-05-08T03:40:36.362Z,4.90
2023-05-08T03:43:06.632Z,4.80
2023-05-08T03:45:35.449Z,5.03
2023-05-08T03:48:04.051Z,4.93
2023-05-08T03:50:31.663Z,5.37
2023-05-08T03:52:58.768Z,4.10
2023-05-08T03:55:25.656Z,4.93
2023-05-08T03:57:59.734Z,4.87
2023-05-08T04:00:36.571Z,4.50
2023-05-08T04:03:18.077Z,5.00
2023-05-08T04:05:51.468Z,4.73
2023-05-08T04:08:22.898Z,4.07
2023-05-08T04:10:58.862Z,4.50
2023-05-08T04:13:31.333Z,5.20
2023-05-08T04:16:09.480Z,4.40
2023-05-08T04:18:38.200Z,4.30
2023-05-08T04:21:09.657Z,4.37
2023-05-08T04:23:38.758Z,4.07
2023-05-08T04:26:06.640Z,5.20
2023-05-08T04:28:35.289Z,5.10
2023-05-08T04:31:03.419Z,5.23
2023-05-08T04:33:30.997Z,5.53
2023-05-08T04:36:00.806Z,4.90
2023-05-08T04:38:27.539Z,5.23
2023-05-08T04:40:54.793Z,5.00
2023-05-08T04:43:21.811Z,4.50
2023-05-08T04:45:49.849Z,5.10
2023-05-08T04:48:16.536Z,5.40
2023-05-08T04:50:43.178Z,5.30
2023-05-08T04:53:09.860Z,4.90
2023-05-08T04:55:36.577Z,4.83
2023-05-08T04:58:03.303Z,4.80
2023-05-08T05:00:30.101Z,4.43
2023-05-08T05:02:58.139Z,5.03
2023-05-08T05:05:24.940Z,5.10
2023-05-08T05:07:51.590Z,5.80
2023-05-08T05:10:18.593Z,5.60
2023-05-08T05:12:45.260Z,5.50
2023-05-08T05:15:12.362Z,5.00
2023-05-08T05:17:39.210Z,5.23
2023-05-08T05:20:09.152Z,5.00
2023-05-08T05:22:35.820Z,5.13
2023-05-08T05:25:02.579Z,5.13
2023-05-08T05:27:29.302Z,5.30
2023-05-08T05:29:55.953Z,5.37
2023-05-08T05:32:22.838Z,5.20
2023-05-08T05:34:49.638Z,6.33
2023-05-08T05:37:17.705Z,5.43
2023-05-08T05:39:44.413Z,4.90
2023-05-08T05:42:11.060Z,5.17
2023-05-08T05:44:37.764Z,5.70
2023-05-08T05:47:04.705Z,5.70
2023-05-08T05:49:31.446Z,4.70
2023-05-08T05:51:58.128Z,5.77
2023-05-08T05:54:26.245Z,5.20
2023-05-08T05:56:52.918Z,5.03
2023-05-08T05:59:19.587Z,5.57
2023-05-08T06:01:46.368Z,6.63
2023-05-08T06:04:13.402Z,5.77
2023-05-08T06:06:40.146Z,6.47
2023-05-08T06:09:06.887Z,6.00
2023-05-08T06:11:35.029Z,6.50
2023-05-08T06:14:01.989Z,7.10
2023-05-08T06:16:28.846Z,5.53
2023-05-08T06:18:55.629Z,7.07
2023-05-08T06:21:22.337Z,5.83
2023-05-08T06:23:49.022Z,5.03
2023-05-08T06:26:15.675Z,6.37
2023-05-08T06:28:43.682Z,6.37
2023-05-08T06:31:10.426Z,5.27
2023-05-08T06:33:37.139Z,6.07
2023-05-08T06:36:04.467Z,6.00
2023-05-08T06:38:31.114Z,6.20
2023-05-08T06:40:57.849Z,6.20
2023-05-08T06:43:24.580Z,6.73
2023-05-08T06:45:52.676Z,6.70
2023-05-08T06:48:19.380Z,6.10
2023-05-08T06:50:46.102Z,6.50
2023-05-08T06:53:12.783Z,6.20
2023-05-08T06:55:42.337Z,5.80
2023-05-08T06:58:09.196Z,6.90
2023-05-08T07:00:36.433Z,5.90
2023-05-08T07:03:04.614Z,6.53
2023-05-08T07:05:31.350Z,5.63
2023-05-08T07:07:58.005Z,6.20
2023-05-08T07:10:24.829Z,5.90
2023-05-08T07:12:51.921Z,6.07
2023-05-08T07:15:26.115Z,4.37
2023-05-08T07:18:07.100Z,2.77
2023-05-08T07:20:33.907Z,5.10
2023-05-08T07:23:00.662Z,5.63
2023-05-08T07:25:27.375Z,6.20
2023-05-08T07:27:54.084Z,5.53
2023-05-08T07:30:20.790Z,4.40
2023-05-08T07:32:47.572Z,5.90
2023-05-08T07:35:16.066Z,6.23
2023-05-08T07:37:42.918Z,5.20
2023-05-08T07:40:10.237Z,3.97
2023-05-08T07:42:40.866Z,4.97
2023-05-08T07:45:08.864Z,5.90
2023-05-08T07:47:35.603Z,6.10
2023-05-08T07:50:02.360Z,6.50
2023-05-08T07:52:30.433Z,4.70
2023-05-08T07:54:57.330Z,5.80
2023-05-08T07:57:24.153Z,6.33
2023-05-08T07:59:50.851Z,5.27
2023-05-08T08:02:26.010Z,6.30
2023-05-08T08:04:52.900Z,6.80
2023-05-08T08:07:19.554Z,5.97
2023-05-08T08:09:47.517Z,5.40
2023-05-08T08:12:14.241Z,6.90
2023-05-08T08:14:41.007Z,5.40
2023-05-08T08:17:07.712Z,4.70
2023-05-08T08:19:34.447Z,5.80
2023-05-08T08:22:01.189Z,2.47
2023-05-08T08:24:29.057Z,5.37
2023-05-08T08:26:57.095Z,6.30
2023-05-08T08:29:23.934Z,5.80
2023-05-08T08:31:50.686Z,5.60
2023-05-08T08:34:17.411Z,6.00
2023-05-08T08:36:44.135Z,5.83
2023-05-08T08:39:12.503Z,6.37
2023-05-08T08:41:40.273Z,6.40
2023-05-08T08:44:08.323Z,5.40
2023-05-08T08:46:39.599Z,5.10
2023-05-08T08:49:09.554Z,6.07
2023-05-08T08:51:42.775Z,4.57
2023-05-08T08:54:12.713Z,5.63
2023-05-08T08:56:41.301Z,4.70
2023-05-08T08:59:11.108Z,6.53
2023-05-08T09:01:40.575Z,5.93
2023-05-08T09:04:07.511Z,5.13
2023-05-08T09:06:36.749Z,4.70
2023-05-08T09:09:03.908Z,6.37
2023-05-08T09:11:30.751Z,4.53
2023-05-08T09:13:59.601Z,5.40
2023-05-08T09:16:28.484Z,5.33
2023-05-08T09:18:55.399Z,5.10
2023-05-08T09:21:22.360Z,4.40
2023-05-08T09:23:55.994Z,4.80
2023-05-08T09:26:30.414Z,1.83
2023-05-08T09:29:13.849Z,5.13
2023-05-08T09:31:44.277Z,5.40
2023-05-08T09:34:12.044Z,5.40
2023-05-08T09:36:38.879Z,4.10
2023-05-08T09:39:09.796Z,4.17
2023-05-08T09:41:36.557Z,5.10
2023-05-08T09:44:04.475Z,5.10
2023-05-08T09:46:32.040Z,5.30
2023-05-08T09:49:02.139Z,4.13
2023-05-08T09:51:30.603Z,5.80
2023-05-08T09:53:58.760Z,2.20
2023-05-08T09:56:36.638Z,4.20
2023-05-08T09:59:04.910Z,4.27
2023-05-08T10:01:33.478Z,1.60
2023-05-08T10:04:02.100Z,3.37
2023-05-08T10:06:29.420Z,3.70
2023-05-08T10:09:09.951Z,4.27
2023-05-08T10:11:36.798Z,4.37
2023-05-08T10:14:03.485Z,4.57
2023-05-08T10:16:31.127Z,4.63
2023-05-08T10:19:05.365Z,3.80
2023-05-08T10:21:36.093Z,4.30
2023-05-08T10:24:06.165Z,4.63
2023-05-08T10:26:35.735Z,1.77
2023-05-08T10:29:07.154Z,3.37
2023-05-08T10:31:36.127Z,5.13
2023-05-08T10:34:32.792Z,3.87
2023-05-08T10:37:01.613Z,3.50
2023-05-08T10:39:29.787Z,3.10
2023-05-08T10:41:56.711Z,3.90
2023-05-08T10:44:24.310Z,3.87
2023-05-08T10:46:58.153Z,4.60
2023-05-08T10:49:33.831Z,1.73
2023-05-08T10:52:12.150Z,2.90
2023-05-08T10:54:49.173Z,3.60
2023-05-08T10:57:15.828Z,2.60
2023-05-08T10:59:45.555Z,3.20
2023-05-08T11:02:12.954Z,3.70
2023-05-08T11:04:39.930Z,3.83
2023-05-08T11:07:08.123Z,2.63
2023-05-08T11:09:46.800Z,3.03
2023-05-08T11:12:22.947Z,3.40
2023-05-08T11:14:59.960Z,3.73
2023-05-08T11:17:26.956Z,3.40
2023-05-08T11:19:58.041Z,2.87
2023-05-08T11:22:28.003Z,3.40
2023-05-08T11:24:57.093Z,3.33
2023-05-08T11:27:38.718Z,2.90
2023-05-08T11:30:26.226Z,2.83
2023-05-08T11:32:57.167Z,2.43
2023-05-08T11:35:42.440Z,2.47
2023-05-08T11:38:20.055Z,2.70
2023-05-08T11:40:48.737Z,2.87
2023-05-08T11:43:45.021Z,2.33
2023-05-08T11:46:15.173Z,2.80
2023-05-08T11:48:42.288Z,1.93
2023-05-08T11:51:09.387Z,1.40
2023-05-08T11:53:38.100Z,2.77
2023-05-08T11:56:05.644Z,1.93
2023-05-08T11:58:32.415Z,2.07
2023-05-08T12:00:59.076Z,2.70
2023-05-08T12:03:25.887Z,1.17
2023-05-08T12:05:56.286Z,2.30
2023-05-08T12:08:23.178Z,1.90
2023-05-08T12:10:52.168Z,1.93
2023-05-08T12:13:19.558Z,2.00
2023-05-08T12:15:46.659Z,2.07
2023-05-08T12:18:13.677Z,1.77
2023-05-08T12:20:40.439Z,1.87
2023-05-08T12:23:07.119Z,1.73
2023-05-08T12:25:34.054Z,2.20
2023-05-08T12:28:02.051Z,2.33
2023-05-08T12:30:28.897Z,2.37
2023-05-08T12:32:56.034Z,2.20
2023-05-08T12:35:22.978Z,2.17
2023-05-08T12:37:51.031Z,2.43
2023-05-08T12:40:26.581Z,2.13
2023-05-08T12:42:53.509Z,1.67
2023-05-08T12:45:23.076Z,2.40
2023-05-08T12:47:50.912Z,2.30
2023-05-08T12:50:19.189Z,1.40
2023-05-08T12:52:46.067Z,1.40
2023-05-08T12:55:26.147Z,2.50
2023-05-08T12:58:00.698Z,1.80
2023-05-08T13:00:36.654Z,1.93
2023-05-08T13:03:03.480Z,1.90
2023-05-08T13:05:30.333Z,1.87
2023-05-08T13:08:00.099Z,1.77
2023-05-08T13:10:27.643Z,1.90
2023-05-08T13:12:54.442Z,1.73
2023-05-08T13:15:21.118Z,1.67
2023-05-08T13:17:49.122Z,1.70
2023-05-08T13:20:16.037Z,2.00
2023-05-08T13:22:42.897Z,2.13
2023-05-08T13:25:09.714Z,2.27
2023-05-08T13:27:36.373Z,1.80
2023-05-08T13:30:03.369Z,2.30
2023-05-08T13:32:30.159Z,1.80
2023-05-08T13:35:00.835Z,2.03
2023-05-08T13:37:27.810Z,2.40
2023-05-08T13:39:54.437Z,2.00
2023-05-08T13:42:21.067Z,1.93
2023-05-08T13:44:47.713Z,2.27
2023-05-08T13:47:14.455Z,2.77
2023-05-08T13:49:41.145Z,1.70
2023-05-08T13:52:09.168Z,1.63
2023-05-08T13:54:35.883Z,2.60
2023-05-08T13:57:02.633Z,1.90
2023-05-08T13:59:29.604Z,1.73
2023-05-08T14:01:56.416Z,1.73
2023-05-08T14:04:23.094Z,2.30
2023-05-08T14:06:50.055Z,2.00
2023-05-08T14:09:18.152Z,2.00
2023-05-08T14:11:45.042Z,1.90
2023-05-08T14:14:11.840Z,1.50
2023-05-08T14:16:38.610Z,4.20
2023-05-08T14:19:05.374Z,2.80
2023-05-08T14:21:32.045Z,1.80
2023-05-08T14:23:58.731Z,1.80
2023-05-08T14:26:26.741Z,1.57
2023-05-08T14:28:53.393Z,2.00
2023-05-08T14:31:20.156Z,1.77
2023-05-08T14:33:46.870Z,1.73
2023-05-08T14:36:13.499Z,1.90
2023-05-08T14:38:40.177Z,1.87
2023-05-08T14:41:06.821Z,1.80
2023-05-08T14:43:34.805Z,1.80
2023-05-08T14:46:01.528Z,2.00
2023-05-08T14:48:28.258Z,2.53
2023-05-08T14:50:55.896Z,1.77
2023-05-08T14:53:22.733Z,1.53
2023-05-08T14:55:49.784Z,2.60
2023-05-08T14:58:16.676Z,1.97
2023-05-08T15:00:44.748Z,2.20
2023-05-08T15:03:11.461Z,2.10
2023-05-08T15:05:38.256Z,1.93
2023-05-08T15:08:05.410Z,2.13
2023-05-08T15:10:32.060Z,1.73
2023-05-08T15:12:58.841Z,1.93
2023-05-08T15:15:25.614Z,1.63
2023-05-08T15:17:53.652Z,1.60
2023-05-08T15:20:20.522Z,2.07
2023-05-08T15:22:47.198Z,1.70
2023-05-08T15:25:14.045Z,1.70
2023-05-08T15:27:40.901Z,1.67
2023-05-08T15:30:08.707Z,2.00
2023-05-08T15:32:35.492Z,2.20
2023-05-08T15:35:04.065Z,2.10
2023-05-08T15:37:30.707Z,1.87
2023-05-08T15:39:57.359Z,1.60
2023-05-08T15:42:24.025Z,2.10
2023-05-08T15:44:55.299Z,1.73
2023-05-08T15:47:22.039Z,1.93
2023-05-08T15:49:48.734Z,1.90
2023-05-08T15:52:16.810Z,1.93
2023-05-08T15:54:43.445Z,2.10
2023-05-08T15:57:10.151Z,2.70
2023-05-08T15:59:36.800Z,1.97
2023-05-08T16:02:03.709Z,2.53
2023-05-08T16:04:30.450Z,1.63
2023-05-08T16:06:58.761Z,2.13
2023-05-08T16:09:27.125Z,2.13
2023-05-08T16:11:53.903Z,1.93
2023-05-08T16:14:20.538Z,2.07
2023-05-08T16:16:47.299Z,1.70
2023-05-08T16:19:14.123Z,1.80
2023-05-08T16:21:40.753Z,2.20
2023-05-08T16:24:07.545Z,1.63
2023-05-08T16:26:35.515Z,1.80
2023-05-08T16:29:02.184Z,1.90
2023-05-08T16:31:28.894Z,2.27
2023-05-08T16:33:55.561Z,2.03
2023-05-08T16:36:22.340Z,1.87
2023-05-08T16:38:49.052Z,1.67
2023-05-08T16:41:15.761Z,2.33
2023-05-08T16:43:43.891Z,3.30
2023-05-08T16:46:10.625Z,2.83
2023-05-08T16:48:37.399Z,2.17
2023-05-08T16:51:04.160Z,1.83
2023-05-08T16:53:31.039Z,1.90
2023-05-08T16:55:57.784Z,2.60
2023-05-08T16:58:24.456Z,1.77
2023-05-08T17:00:52.464Z,2.50
2023-05-08T17:03:19.266Z,2.10
2023-05-08T17:05:46.217Z,1.90
2023-05-08T17:08:13.318Z,2.20
2023-05-08T17:10:40.477Z,2.27
2023-05-08T17:13:07.426Z,2.30
2023-05-08T17:15:34.258Z,2.30
2023-05-08T17:18:03.195Z,1.90
2023-05-08T17:20:30.321Z,2.00
2023-05-08T17:22:57.242Z,2.30
2023-05-08T17:25:23.984Z,2.13
2023-05-08T17:27:50.910Z,2.17
2023-05-08T17:30:17.581Z,2.30
2023-05-08T17:32:44.267Z,1.80
2023-05-08T17:35:12.314Z,1.80
2023-05-08T17:37:38.952Z,2.90
2023-05-08T17:40:06.918Z,2.10
2023-05-08T17:42:33.585Z,2.40
2023-05-08T17:45:00.225Z,2.20
2023-05-08T17:47:27.057Z,2.80
2023-05-08T17:49:53.762Z,1.97
2023-05-08T17:52:21.786Z,2.37
2023-05-08T17:54:50.576Z,2.30
2023-05-08T17:57:17.274Z,2.23
2023-05-08T17:59:43.927Z,1.93
2023-05-08T18:02:10.731Z,2.10
2023-05-08T18:04:37.446Z,1.60
2023-05-08T18:07:04.076Z,2.30
2023-05-08T18:09:32.683Z,2.10
2023-05-08T18:11:59.354Z,2.30
2023-05-08T18:14:28.834Z,2.10
2023-05-08T18:16:55.525Z,2.10
2023-05-08T18:19:22.186Z,2.33
2023-05-08T18:21:48.845Z,1.90
2023-05-08T18:24:15.522Z,1.97
2023-05-08T18:26:45.453Z,1.90
2023-05-08T18:29:12.128Z,2.30
2023-05-08T18:31:38.810Z,1.77
2023-05-08T18:34:05.537Z,2.70
2023-05-08T18:36:32.165Z,2.10
2023-05-08T18:38:58.828Z,2.20
2023-05-08T18:41:25.496Z,1.83
2023-05-08T18:43:53.509Z,1.67
2023-05-08T18:46:20.174Z,2.00
2023-05-08T18:48:46.855Z,2.10
2023-05-08T18:51:13.496Z,2.23
2023-05-08T18:53:40.154Z,2.20
2023-05-08T18:56:06.933Z,1.83
2023-05-08T18:58:33.590Z,2.20
2023-05-08T19:01:01.595Z,1.90
2023-05-08T19:03:28.403Z,2.10
2023-05-08T19:05:55.648Z,2.20
2023-05-08T19:08:22.470Z,2.40
2023-05-08T19:10:49.236Z,2.40
2023-05-08T19:13:15.966Z,2.57
2023-05-08T19:15:42.701Z,2.20
2023-05-08T19:18:10.749Z,2.10
2023-05-08T19:20:37.428Z,2.20
2023-05-08T19:23:04.135Z,2.27
2023-05-08T19:25:30.810Z,2.10
2023-05-08T19:27:57.440Z,2.53
2023-05-08T19:30:24.244Z,1.97
2023-05-08T19:32:50.882Z,2.73
2023-05-08T19:35:18.855Z,1.50
2023-05-08T19:37:45.537Z,1.80
2023-05-08T19:40:13.434Z,1.97
2023-05-08T19:42:40.301Z,2.30
2023-05-08T19:45:07.937Z,2.43
2023-05-08T19:47:34.605Z,2.00
2023-05-08T19:50:01.331Z,2.37
2023-05-08T19:52:29.291Z,2.30
2023-05-08T19:54:56.846Z,2.23
2023-05-08T19:57:23.534Z,2.20
2023-05-08T19:59:50.183Z,2.33
2023-05-08T20:02:16.850Z,2.53
2023-05-08T20:05:04.292Z,2.50
2023-05-08T20:07:31.510Z,2.03
2023-05-08T20:09:58.172Z,2.03
2023-05-08T20:12:24.921Z,2.20
2023-05-08T20:14:51.602Z,2.30
2023-05-08T20:17:18.338Z,2.37
2023-05-08T20:19:45.630Z,1.97
2023-05-08T20:22:12.293Z,2.30
2023-05-08T20:24:40.292Z,1.90
2023-05-08T20:27:06.965Z,2.40
2023-05-08T20:29:33.940Z,2.37
2023-05-08T20:32:00.931Z,2.43
2023-05-08T20:34:27.635Z,2.50
2023-05-08T20:36:54.283Z,2.27
2023-05-08T20:39:20.938Z,2.37
2023-05-08T20:41:48.953Z,1.90
2023-05-08T20:44:15.816Z,2.17
2023-05-08T20:46:42.500Z,2.30
2023-05-08T20:49:09.128Z,2.37
2023-05-08T20:51:35.766Z,2.40
2023-05-08T20:54:02.415Z,1.87
2023-05-08T20:56:29.171Z,2.57
2023-05-08T20:58:57.145Z,2.33
2023-05-08T21:01:23.793Z,2.30
2023-05-08T21:03:50.481Z,2.67
2023-05-08T21:06:17.161Z,2.20
2023-05-08T21:08:43.796Z,2.20
2023-05-08T21:11:10.487Z,2.50
2023-05-08T21:13:37.141Z,3.00
2023-05-08T21:16:05.734Z,2.57
2023-05-08T21:18:32.417Z,2.47
2023-05-08T21:20:59.062Z,2.57
2023-05-08T21:23:25.949Z,2.13
2023-05-08T21:25:52.583Z,2.27
2023-05-08T21:28:19.210Z,3.13
2023-05-08T21:30:46.659Z,2.33
2023-05-08T21:33:14.644Z,2.70
2023-05-08T21:35:41.558Z,2.67
2023-05-08T21:38:08.320Z,3.33
2023-05-08T21:40:35.107Z,2.60
2023-05-08T21:43:01.769Z,2.60
2023-05-08T21:45:30.168Z,2.43
2023-05-08T21:47:56.942Z,2.40
2023-05-08T21:50:25.199Z,2.03
2023-05-08T21:52:51.952Z,2.10
2023-05-08T21:55:18.717Z,3.27
2023-05-08T21:57:45.386Z,2.80
2023-05-08T22:00:13.232Z,3.17
2023-05-08T22:02:39.982Z,2.70
2023-05-08T22:05:07.565Z,3.10
2023-05-08T22:07:35.556Z,2.77
2023-05-08T22:10:02.292Z,2.73
2023-05-08T22:12:28.974Z,3.00
2023-05-08T22:14:55.662Z,2.67
2023-05-08T22:17:22.328Z,2.50
2023-05-08T22:19:48.961Z,3.20
2023-05-08T22:22:15.604Z,3.40
2023-05-08T22:24:43.676Z,3.13
2023-05-08T22:27:10.569Z,3.13
2023-05-08T22:29:37.201Z,2.77
2023-05-08T22:32:04.192Z,2.97
2023-05-08T22:34:30.886Z,2.90
2023-05-08T22:36:57.535Z,3.30
2023-05-08T22:39:24.177Z,3.60
2023-05-08T22:41:52.254Z,3.80
2023-05-08T22:44:19.014Z,3.13
2023-05-08T22:46:45.893Z,2.70
2023-05-08T22:49:12.638Z,3.43
2023-05-08T22:51:39.293Z,3.90
2023-05-08T22:54:06.072Z,3.47
2023-05-08T22:56:32.764Z,3.57
2023-05-08T22:59:00.761Z,3.50
2023-05-08T23:01:27.400Z,3.70
2023-05-08T23:03:54.053Z,3.53
2023-05-08T23:06:20.792Z,3.30
2023-05-08T23:08:47.456Z,3.63
2023-05-08T23:11:14.235Z,3.60
2023-05-08T23:13:40.880Z,3.70
2023-05-08T23:16:08.921Z,3.80
2023-05-08T23:18:35.597Z,3.67
2023-05-08T23:21:05.528Z,3.07
2023-05-08T23:23:32.248Z,3.10
2023-05-08T23:25:58.877Z,3.40
2023-05-08T23:28:25.498Z,3.90
2023-05-08T23:30:52.188Z,3.23
2023-05-08T23:33:20.176Z,3.90
2023-05-08T23:35:46.888Z,3.80
2023-05-08T23:38:13.524Z,4.37
2023-05-08T23:40:40.182Z,3.67
2023-05-08T23:43:06.830Z,3.47
2023-05-08T23:45:33.566Z,3.87
2023-05-08T23:48:00.322Z,4.43
2023-05-08T23:50:28.324Z,3.70
2023-05-08T23:52:54.973Z,4.27
2023-05-08T23:55:21.665Z,3.80
2023-05-08T23:57:48.435Z,3.30
